Time;durP1;ratioP1;P1;durP2;ratioP2;P2;SDS_P1;SDS_P2;PMS_P1;PMS_P2;Temp;Humidity;BMP_temperature;BMP_pressure;BME280_temperature;BME280_humidity;BME280_pressure;Samples;Min_cycle;Max_cycle;Signal;HPM_P1;HPM_P2
2023/10/27 00:01:30;;;;;;;17.67;12.85;;;15.40;69.80;17.10;99042.00;;;;5004984;28;20236;-73
2023/10/27 00:03:58;;;;;;;17.50;12.43;;;15.40;69.90;17.10;99042.00;;;;5001490;28;20225;-73
2023/10/27 00:08:51;;;;;;;17.05;11.88;;;15.40;69.90;17.10;99052.00;;;;5097518;23;20311;-73
2023/10/27 00:11:18;;;;;;;16.13;11.45;;;15.30;69.80;17.10;99043.00;;;;5053893;28;20218;-73
2023/10/27 00:13:45;;;;;;;16.38;11.07;;;15.40;69.90;17.10;99043.00;;;;5052534;28;20204;-73
2023/10/27 00:16:13;;;;;;;16.15;11.30;;;15.40;69.90;17.20;99041.00;;;;5042581;28;20212;-73
2023/10/27 00:18:40;;;;;;;15.95;11.98;;;15.40;69.90;17.20;99044.00;;;;5051212;28;20554;-73
2023/10/27 00:21:08;;;;;;;19.23;13.07;;;15.40;69.90;17.20;99037.00;;;;5048285;28;20544;-73
2023/10/27 00:23:35;;;;;;;16.83;11.18;;;15.40;69.90;17.20;99039.00;;;;5051934;28;20199;-73
2023/10/27 00:26:03;;;;;;;16.88;12.23;;;15.40;69.90;17.20;99035.00;;;;5051852;28;20192;-73
2023/10/27 00:28:31;;;;;;;15.82;12.45;;;15.40;69.90;17.20;99035.00;;;;5104983;22;20206;-73
2023/10/27 00:31:00;;;;;;;17.00;11.85;;;15.40;69.90;17.20;99036.00;;;;5032585;28;20219;-73
2023/10/27 00:33:27;;;;;;;17.67;12.25;;;15.40;69.90;17.20;99043.00;;;;5025699;28;20185;-74
2023/10/27 00:35:55;;;;;;;16.35;12.18;;;15.40;69.90;17.20;99049.00;;;;5029954;28;20211;-73
2023/10/27 00:38:24;;;;;;;19.45;13.43;;;15.40;69.90;17.20;99036.00;;;;5032998;28;20679;-73
2023/10/27 00:40:51;;;;;;;16.52;12.10;;;15.40;69.90;17.20;99036.00;;;;5025248;28;20197;-73
2023/10/27 00:43:19;;;;;;;20.73;13.60;;;15.40;69.90;17.20;99027.00;;;;5024730;28;20652;-73
2023/10/27 00:45:49;;;;;;;20.30;13.77;;;15.40;69.90;17.20;99027.00;;;;5031157;28;20203;-73
2023/10/27 00:48:18;;;;;;;17.92;12.75;;;15.40;69.90;17.20;99026.00;;;;5032348;28;20196;-73
2023/10/27 00:50:45;;;;;;;17.42;12.55;;;15.40;69.90;17.20;99028.00;;;;5032471;28;20235;-73
2023/10/27 00:53:13;;;;;;;22.38;13.43;;;15.40;69.90;17.20;99021.00;;;;5032537;28;20204;-74
2023/10/27 00:55:43;;;;;;;15.27;11.48;;;15.40;69.90;17.10;99020.00;;;;5032445;28;20210;-73
2023/10/27 00:58:13;;;;;;;17.42;13.07;;;15.40;69.90;17.20;99020.00;;;;5031734;28;20204;-73
2023/10/27 01:00:40;;;;;;;17.38;11.95;;;15.40;69.90;17.20;99018.00;;;;5024876;28;20665;-73
2023/10/27 01:03:07;;;;;;;18.50;12.07;;;15.40;69.90;17.20;99015.00;;;;5032148;28;20673;-73
2023/10/27 01:05:34;;;;;;;17.90;12.05;;;15.40;69.90;17.20;99021.00;;;;5032018;28;20196;-73
2023/10/27 01:08:01;;;;;;;16.35;12.63;;;15.40;70.00;17.20;99016.00;;;;5032491;28;20200;-73
2023/10/27 01:10:30;;;;;;;17.63;12.45;;;15.40;70.00;17.20;99011.00;;;;5031454;28;20228;-73
2023/10/27 01:12:59;;;;;;;15.43;11.57;;;15.40;70.00;17.20;99003.00;;;;5032469;28;20243;-73
2023/10/27 01:15:26;;;;;;;19.98;11.80;;;15.40;70.00;17.20;99008.00;;;;5028053;28;20192;-74
2023/10/27 01:17:53;;;;;;;16.83;12.25;;;15.40;70.10;17.20;99008.00;;;;5025332;28;20647;-73
2023/10/27 01:20:20;;;;;;;14.75;11.25;;;15.40;70.00;17.20;99008.00;;;;5030176;28;20283;-74
2023/10/27 01:22:49;;;;;;;16.48;11.65;;;15.40;70.10;17.20;99001.00;;;;5031897;28;20291;-74
2023/10/27 01:25:17;;;;;;;17.45;12.02;;;15.40;70.00;17.20;99006.00;;;;5028302;28;20204;-74
2023/10/27 01:27:45;;;;;;;16.00;11.23;;;15.50;70.10;17.20;99004.00;;;;5029409;28;20243;-74
2023/10/27 01:30:13;;;;;;;15.88;10.95;;;15.50;70.10;17.20;98999.00;;;;5029322;28;20768;-75
2023/10/27 01:32:43;;;;;;;16.25;11.65;;;15.40;70.10;17.20;98998.00;;;;5029850;28;20219;-74
2023/10/27 01:35:10;;;;;;;15.23;9.93;;;15.40;70.10;17.20;98993.00;;;;5029403;28;20196;-74
2023/10/27 01:37:37;;;;;;;15.15;11.38;;;15.50;70.10;17.20;98992.00;;;;5030364;28;20697;-74
2023/10/27 01:40:07;;;;;;;15.63;10.95;;;15.40;70.10;17.20;98996.00;;;;5029115;28;20234;-74
2023/10/27 01:42:36;;;;;;;15.57;11.02;;;15.40;70.10;17.20;98995.00;;;;5030421;28;20207;-74
2023/10/27 01:45:04;;;;;;;13.45;10.30;;;15.40;70.10;17.20;98994.00;;;;5025937;28;20197;-74
2023/10/27 01:47:32;;;;;;;13.38;10.18;;;15.40;70.10;17.20;98991.00;;;;5031587;28;20191;-74
2023/10/27 01:49:59;;;;;;;14.27;10.57;;;15.40;70.10;17.20;98989.00;;;;5024560;28;20231;-74
2023/10/27 01:52:26;;;;;;;15.50;10.07;;;15.40;70.10;17.20;98989.00;;;;5029682;28;20192;-74
2023/10/27 01:54:54;;;;;;;13.77;10.88;;;15.40;70.10;17.20;98987.00;;;;5023903;28;20201;-74
2023/10/27 01:57:24;;;;;;;15.30;10.50;;;15.40;70.10;17.10;98987.00;;;;5018086;28;20203;-75
2023/10/27 01:59:51;;;;;;;11.65;9.43;;;15.40;70.20;17.20;98985.00;;;;5030135;28;20600;-75
2023/10/27 02:02:18;;;;;;;12.07;8.63;;;15.40;70.20;17.10;98983.00;;;;5030956;28;20220;-75
2023/10/27 02:04:45;;;;;;;14.10;9.38;;;15.40;70.30;17.20;98987.00;;;;5023934;28;20192;-74
2023/10/27 02:07:15;;;;;;;13.90;10.18;;;15.40;70.20;17.20;98982.00;;;;5027912;28;20192;-75
2023/10/27 02:09:42;;;;;;;12.30;9.43;;;15.40;70.30;17.20;98981.00;;;;5031091;28;20203;-75
2023/10/27 02:12:10;;;;;;;10.57;8.48;;;15.40;70.40;17.20;98986.00;;;;5036125;28;20823;-75
2023/10/27 02:14:39;;;;;;;13.13;9.88;;;15.40;70.40;17.10;98980.00;;;;5031228;28;20188;-75
2023/10/27 02:17:06;;;;;;;14.38;9.80;;;15.40;70.40;17.20;98985.00;;;;5030024;28;20589;-75
2023/10/27 02:19:33;;;;;;;13.07;9.32;;;15.40;70.40;17.20;98982.00;;;;5030855;28;20203;-74
2023/10/27 02:22:01;;;;;;;12.98;9.18;;;15.40;70.40;17.10;98980.00;;;;5030951;28;20204;-75
2023/10/27 02:24:28;;;;;;;14.02;9.40;;;15.40;70.50;17.20;98981.00;;;;5029510;28;20194;-75
2023/10/27 02:26:55;;;;;;;11.20;9.00;;;15.40;70.40;17.20;98979.00;;;;5031244;28;20591;-75
2023/10/27 02:29:22;;;;;;;11.32;8.38;;;15.40;70.40;17.20;98981.00;;;;5030541;28;20848;-74
2023/10/27 02:31:51;;;;;;;16.33;8.98;;;15.40;70.50;17.20;98973.00;;;;5030668;28;20575;-75
2023/10/27 02:34:18;;;;;;;10.60;8.60;;;15.40;70.60;17.20;98979.00;;;;5028693;28;20653;-75
2023/10/27 02:36:45;;;;;;;11.10;8.52;;;15.40;70.50;17.20;98974.00;;;;5030194;28;20215;-74
2023/10/27 02:39:12;;;;;;;11.90;8.10;;;15.40;70.60;17.20;98976.00;;;;5029454;28;20193;-75
2023/10/27 02:41:39;;;;;;;9.38;7.45;;;15.40;70.60;17.20;98973.00;;;;5025662;28;20238;-75
2023/10/27 02:44:06;;;;;;;8.95;7.38;;;15.40;70.60;17.20;98970.00;;;;5029618;28;20199;-76
2023/10/27 02:46:34;;;;;;;10.65;7.97;;;15.50;70.70;17.20;98975.00;;;;5029608;28;20192;-75
2023/10/27 02:49:04;;;;;;;10.70;7.78;;;15.40;70.60;17.20;98974.00;;;;5029801;28;20200;-75
2023/10/27 02:51:31;;;;;;;11.30;8.07;;;15.50;70.60;17.20;98969.00;;;;5028998;28;20224;-75
2023/10/27 02:53:59;;;;;;;9.65;7.18;;;15.40;70.60;17.20;98974.00;;;;5030622;28;20218;-75
2023/10/27 02:56:26;;;;;;;9.30;6.75;;;15.50;70.70;17.20;98973.00;;;;5028357;28;20590;-75
2023/10/27 02:58:53;;;;;;;11.18;7.47;;;15.40;70.60;17.20;98968.00;;;;5027283;28;20200;-75
2023/10/27 03:01:20;;;;;;;9.18;7.20;;;15.40;70.60;17.20;98974.00;;;;5029628;28;20196;-75
2023/10/27 03:03:47;;;;;;;9.05;7.35;;;15.50;70.70;17.20;98966.00;;;;5025920;28;20663;-75
2023/10/27 03:06:15;;;;;;;8.50;6.70;;;15.50;70.70;17.20;98970.00;;;;5025714;28;20749;-74
2023/10/27 03:08:43;;;;;;;9.10;6.65;;;15.50;70.80;17.30;98964.00;;;;5030575;28;20275;-75
2023/10/27 03:11:10;;;;;;;10.23;7.65;;;15.50;70.80;17.30;98961.00;;;;5028314;28;20596;-75
2023/10/27 03:13:38;;;;;;;10.32;7.25;;;15.50;70.80;17.30;98963.00;;;;5033302;28;20196;-75
2023/10/27 03:16:06;;;;;;;8.98;6.57;;;15.50;70.80;17.30;98961.00;;;;5031001;28;20672;-75
2023/10/27 03:18:33;;;;;;;9.35;6.60;;;15.50;70.80;17.30;98961.00;;;;5023695;28;20192;-75
2023/10/27 03:21:03;;;;;;;8.25;6.43;;;15.50;71.40;17.30;98962.00;;;;5031499;28;20204;-75
2023/10/27 03:23:32;;;;;;;8.80;6.40;;;15.50;70.80;17.30;98953.00;;;;5034513;28;20284;-75
2023/10/27 03:25:59;;;;;;;8.52;6.05;;;15.50;70.80;17.30;98952.00;;;;5033433;28;20207;-75
2023/10/27 03:28:26;;;;;;;7.18;5.63;;;15.50;70.80;17.30;98957.00;;;;5033459;28;20208;-75
2023/10/27 03:30:54;;;;;;;7.03;5.55;;;15.50;70.80;17.30;98953.00;;;;5030889;28;20584;-75
2023/10/27 03:33:21;;;;;;;8.65;6.60;;;15.60;70.80;17.30;98955.00;;;;5031498;28;20697;-75
2023/10/27 03:35:48;;;;;;;7.13;5.47;;;15.60;70.80;17.30;98945.00;;;;5031566;28;20204;-74
2023/10/27 03:38:17;;;;;;;8.27;5.57;;;15.60;70.80;17.30;98952.00;;;;5027867;28;20202;-75
2023/10/27 03:40:47;;;;;;;7.05;5.47;;;15.60;70.80;17.30;98950.00;;;;5032792;28;20199;-75
2023/10/27 03:43:15;;;;;;;6.25;5.07;;;15.60;70.80;17.30;98949.00;;;;5027857;28;20200;-75
2023/10/27 03:45:42;;;;;;;6.10;5.18;;;15.60;70.80;17.30;98941.00;;;;5032288;28;20198;-75
2023/10/27 03:48:09;;;;;;;5.57;4.40;;;15.60;70.80;17.30;98949.00;;;;5030901;28;20202;-75
2023/10/27 03:50:37;;;;;;;5.88;4.78;;;15.60;70.80;17.30;98953.00;;;;5033441;28;20224;-75
2023/10/27 03:53:04;;;;;;;5.65;4.38;;;15.60;70.80;17.30;98948.00;;;;5030017;28;20200;-75
2023/10/27 03:55:32;;;;;;;6.13;4.45;;;15.60;70.80;17.40;98950.00;;;;5033294;28;20197;-75
2023/10/27 03:58:16;;;;;;;6.13;4.82;;;15.60;70.80;17.20;98945.00;;;;5033122;28;20200;-75
2023/10/27 04:00:43;;;;;;;6.07;4.50;;;15.60;70.90;17.40;98940.00;;;;5023616;28;20231;-74
2023/10/27 04:03:10;;;;;;;5.13;3.88;;;15.60;70.80;17.40;98947.00;;;;5031664;28;20559;-75
2023/10/27 04:05:37;;;;;;;5.07;4.18;;;15.60;70.80;17.40;98942.00;;;;5032627;28;20197;-75
2023/10/27 04:08:04;;;;;;;6.68;4.53;;;15.60;70.80;17.40;98951.00;;;;5030551;28;20196;-76
2023/10/27 04:10:33;;;;;;;4.18;3.47;;;15.60;70.80;17.40;98937.00;;;;5023531;28;21264;-76
2023/10/27 04:13:00;;;;;;;4.85;3.78;;;15.60;70.80;17.40;98943.00;;;;5024212;28;20204;-76
2023/10/27 04:15:29;;;;;;;4.35;3.20;;;15.60;70.80;17.40;98940.00;;;;5031709;28;20278;-77
2023/10/27 04:17:56;;;;;;;6.10;3.33;;;15.60;70.80;17.40;98948.00;;;;5033107;28;20211;-77
2023/10/27 04:20:23;;;;;;;6.28;4.10;;;15.60;70.80;17.40;98945.00;;;;5032902;28;20834;-77
2023/10/27 04:22:50;;;;;;;4.32;3.30;;;15.70;70.80;17.40;98945.00;;;;5036752;28;20196;-76
2023/10/27 04:25:17;;;;;;;4.00;3.50;;;15.70;70.80;17.40;98943.00;;;;5032500;28;21983;-77
2023/10/27 04:27:45;;;;;;;5.07;3.50;;;15.70;70.80;17.40;98941.00;;;;5033608;28;20274;-77
2023/10/27 04:30:13;;;;;;;3.97;3.10;;;15.60;70.80;17.40;98943.00;;;;5032454;28;20220;-76
2023/10/27 04:32:42;;;;;;;4.32;2.78;;;15.70;70.90;17.40;98942.00;;;;5026690;28;20592;-76
2023/10/27 04:35:09;;;;;;;3.80;3.33;;;15.70;70.80;17.40;98956.00;;;;5033103;28;20208;-76
2023/10/27 04:37:37;;;;;;;3.03;2.47;;;15.70;70.90;17.40;98954.00;;;;5019609;28;20209;-75
2023/10/27 04:40:05;;;;;;;3.00;2.50;;;15.70;70.80;17.40;98949.00;;;;5031363;28;20205;-76
2023/10/27 04:42:32;;;;;;;3.17;2.47;;;15.70;70.80;17.40;98947.00;;;;5027126;28;20280;-76
2023/10/27 04:44:59;;;;;;;3.40;2.63;;;15.70;70.90;17.40;98945.00;;;;5031402;28;20197;-76
2023/10/27 04:47:26;;;;;;;2.58;1.98;;;15.70;70.90;17.50;98955.00;;;;5031556;28;20201;-75
2023/10/27 04:49:55;;;;;;;3.03;2.30;;;15.70;70.90;17.40;98949.00;;;;5032480;28;20200;-75
2023/10/27 04:52:22;;;;;;;2.17;1.75;;;15.70;70.90;17.50;98948.00;;;;5033709;28;20594;-75
2023/10/27 04:54:49;;;;;;;2.17;1.85;;;15.70;70.80;17.50;98949.00;;;;5032763;28;20197;-75
2023/10/27 04:57:16;;;;;;;2.80;2.10;;;15.70;70.80;17.40;98942.00;;;;5032025;28;20291;-75
2023/10/27 04:59:43;;;;;;;2.70;1.98;;;15.70;70.90;17.50;98952.00;;;;5033670;28;20196;-75
2023/10/27 05:02:10;;;;;;;2.92;2.00;;;15.70;70.80;17.50;98939.00;;;;5033486;28;20291;-75
2023/10/27 05:04:37;;;;;;;2.83;2.17;;;15.70;70.80;17.50;98946.00;;;;5032754;28;20193;-75
2023/10/27 05:07:06;;;;;;;2.70;2.20;;;15.70;70.80;17.40;98937.00;;;;5033373;28;20709;-75
2023/10/27 05:09:33;;;;;;;3.20;2.40;;;15.70;70.80;17.50;98939.00;;;;5031353;28;20193;-75
2023/10/27 05:12:00;;;;;;;3.33;2.42;;;15.70;70.80;17.50;98940.00;;;;5032284;28;20315;-76
2023/10/27 05:14:27;;;;;;;2.42;2.10;;;15.70;70.80;17.50;98939.00;;;;5032398;28;20222;-76
2023/10/27 05:16:54;;;;;;;3.35;2.55;;;15.70;70.80;17.50;98939.00;;;;5023964;28;20200;-75
2023/10/27 05:19:21;;;;;;;2.70;1.98;;;15.70;70.80;17.50;98942.00;;;;5022175;28;20707;-75
2023/10/27 05:21:48;;;;;;;2.85;2.38;;;15.70;70.80;17.50;98939.00;;;;5028415;28;20206;-75
2023/10/27 05:24:17;;;;;;;2.80;2.15;;;15.70;70.80;17.40;98940.00;;;;5032173;28;20697;-75
2023/10/27 05:26:44;;;;;;;2.92;2.35;;;15.70;70.80;17.50;98942.00;;;;5031999;28;20200;-75
2023/10/27 05:29:12;;;;;;;3.90;2.97;;;15.70;70.80;17.50;98935.00;;;;5032317;28;20232;-75
2023/10/27 05:31:42;;;;;;;3.13;2.28;;;15.70;70.80;17.50;98937.00;;;;5027373;28;20298;-75
2023/10/27 05:34:09;;;;;;;3.40;2.78;;;15.70;70.80;17.50;98932.00;;;;5029235;28;20729;-75
2023/10/27 05:36:36;;;;;;;3.10;2.22;;;15.70;70.80;17.50;98940.00;;;;5032054;28;20704;-75
2023/10/27 05:39:03;;;;;;;3.28;2.72;;;15.70;70.80;17.50;98937.00;;;;5029287;28;20690;-75
2023/10/27 05:41:32;;;;;;;2.97;2.42;;;15.70;70.80;17.50;98939.00;;;;5029487;28;20212;-75
2023/10/27 05:43:59;;;;;;;3.42;2.35;;;15.70;70.70;17.50;98943.00;;;;5030485;28;20689;-75
2023/10/27 05:46:28;;;;;;;3.38;2.58;;;15.70;70.80;17.50;98943.00;;;;5029111;28;20206;-75
2023/10/27 05:49:00;;;;;;;2.80;2.25;;;15.70;70.80;17.50;98940.00;;;;5029389;28;20196;-75
2023/10/27 05:51:27;;;;;;;3.60;2.75;;;15.70;70.80;17.50;98949.00;;;;5032257;28;20231;-74
2023/10/27 05:53:54;;;;;;;4.63;2.97;;;15.70;70.80;17.50;98941.00;;;;5030256;28;20200;-75
2023/10/27 05:56:21;;;;;;;3.88;2.85;;;15.70;70.80;17.50;98946.00;;;;5025515;28;20192;-75
2023/10/27 05:58:49;;;;;;;3.80;2.60;;;15.70;70.80;17.50;98934.00;;;;5028282;28;20204;-75
2023/10/27 06:01:17;;;;;;;3.88;3.03;;;15.70;70.80;17.50;98940.00;;;;5026769;28;20295;-75
2023/10/27 06:03:44;;;;;;;2.85;2.45;;;15.70;70.80;17.50;98934.00;;;;5028953;28;20287;-75
2023/10/27 06:06:11;;;;;;;4.47;2.88;;;15.70;70.80;17.50;98944.00;;;;5031399;28;20200;-74
2023/10/27 06:08:42;;;;;;;3.80;3.03;;;15.70;70.80;17.50;98937.00;;;;5027050;28;20207;-74
2023/10/27 06:11:09;;;;;;;4.78;2.95;;;15.70;70.80;17.50;98935.00;;;;5028614;28;20228;-73
2023/10/27 06:13:36;;;;;;;3.47;2.42;;;15.70;70.80;17.50;98943.00;;;;5022711;28;20192;-73
2023/10/27 06:16:07;;;;;;;3.38;2.70;;;15.70;70.80;17.50;98939.00;;;;5024376;28;20287;-73
2023/10/27 06:18:34;;;;;;;4.03;2.67;;;15.70;70.80;17.50;98939.00;;;;5024110;28;20200;-74
2023/10/27 06:21:02;;;;;;;3.63;2.88;;;15.70;70.80;17.50;98939.00;;;;5027381;28;20279;-74
2023/10/27 06:23:29;;;;;;;3.45;2.92;;;15.70;70.80;17.50;98938.00;;;;5031017;28;20287;-74
2023/10/27 06:25:56;;;;;;;3.72;3.13;;;15.70;70.80;17.50;98935.00;;;;5029698;28;20423;-74
2023/10/27 06:28:23;;;;;;;4.57;3.65;;;15.80;70.90;17.50;98935.00;;;;5028414;28;20444;-73
2023/10/27 06:30:50;;;;;;;4.90;3.22;;;15.70;70.80;17.50;98941.00;;;;5030682;28;20204;-73
2023/10/27 06:33:18;;;;;;;5.18;3.80;;;15.70;70.80;17.50;98937.00;;;;5031378;28;20236;-73
2023/10/27 06:35:48;;;;;;;4.53;3.30;;;15.80;70.90;17.50;98939.00;;;;5032211;28;20204;-73
2023/10/27 06:38:15;;;;;;;4.70;3.28;;;15.70;70.80;17.50;98941.00;;;;5031873;28;20204;-73
2023/10/27 06:40:42;;;;;;;4.03;3.00;;;15.80;70.90;17.50;98939.00;;;;5031832;28;20192;-73
2023/10/27 06:43:09;;;;;;;4.18;3.03;;;15.70;70.80;17.50;98935.00;;;;5031810;28;20196;-73
2023/10/27 06:45:37;;;;;;;3.90;3.15;;;15.80;70.90;17.50;98935.00;;;;5031894;28;20211;-73
2023/10/27 06:48:04;;;;;;;4.03;2.95;;;15.70;70.80;17.50;98931.00;;;;5031169;28;20220;-73
2023/10/27 06:50:32;;;;;;;4.72;2.70;;;15.70;70.80;17.50;98938.00;;;;5031507;28;20658;-73
2023/10/27 06:52:59;;;;;;;4.13;2.95;;;15.70;70.90;17.50;98937.00;;;;5031623;28;20609;-73
2023/10/27 06:55:26;;;;;;;4.10;3.20;;;15.70;70.80;17.50;98941.00;;;;5031524;28;20204;-73
2023/10/27 06:57:53;;;;;;;4.53;3.70;;;15.80;70.90;17.50;98938.00;;;;5031619;28;20192;-73
2023/10/27 07:00:20;;;;;;;4.50;3.42;;;15.80;70.90;17.50;98935.00;;;;5031484;28;20208;-73
2023/10/27 07:02:47;;;;;;;5.55;3.53;;;15.80;70.90;17.50;98944.00;;;;5031509;28;20192;-73
2023/10/27 07:05:16;;;;;;;4.03;2.95;;;15.70;70.80;17.50;98944.00;;;;5031373;28;20257;-73
2023/10/27 07:07:45;;;;;;;3.47;2.78;;;15.80;70.90;17.50;98952.00;;;;5031545;28;20196;-73
2023/10/27 07:10:12;;;;;;;3.47;2.90;;;15.70;70.80;17.50;98941.00;;;;5031226;28;20654;-73
2023/10/27 07:12:39;;;;;;;4.38;3.10;;;15.80;70.90;17.50;98946.00;;;;5031277;28;20258;-73
2023/10/27 07:15:07;;;;;;;14.80;2.90;;;15.80;70.90;17.50;98943.00;;;;5031206;28;20204;-73
2023/10/27 07:17:34;;;;;;;3.95;3.05;;;15.70;70.80;17.60;98947.00;;;;5031617;28;20232;-73
2023/10/27 07:20:02;;;;;;;3.63;2.78;;;15.70;70.80;17.50;98949.00;;;;5030906;28;20208;-73
2023/10/27 07:22:30;;;;;;;4.55;3.13;;;15.80;70.90;17.60;98952.00;;;;5031637;28;20215;-73
2023/10/27 07:24:58;;;;;;;3.72;2.90;;;15.70;70.80;17.60;98952.00;;;;5031522;28;20200;-73
2023/10/27 07:27:25;;;;;;;5.13;3.35;;;15.80;70.90;17.60;98957.00;;;;5031385;28;20192;-73
2023/10/27 07:29:52;;;;;;;4.60;3.03;;;15.70;70.80;17.60;98953.00;;;;5031247;28;20228;-73
2023/10/27 07:32:21;;;;;;;4.18;2.88;;;15.80;70.90;17.60;98952.00;;;;5030735;28;20226;-73
2023/10/27 07:34:49;;;;;;;4.10;2.60;;;15.80;70.90;17.60;98956.00;;;;5030874;28;20207;-73
2023/10/27 07:37:19;;;;;;;4.22;2.90;;;15.80;70.90;17.60;98959.00;;;;5013605;28;20200;-73
2023/10/27 07:39:47;;;;;;;3.45;2.63;;;15.80;71.00;17.60;98959.00;;;;5031940;28;20196;-72
2023/10/27 07:42:16;;;;;;;5.18;3.30;;;15.80;71.00;17.60;98956.00;;;;5031427;28;20723;-73
2023/10/27 07:44:43;;;;;;;3.30;2.47;;;15.80;71.00;17.60;98958.00;;;;5031207;28;20211;-73
2023/10/27 07:47:10;;;;;;;3.70;2.88;;;15.80;71.00;17.60;98966.00;;;;5031392;28;20299;-73
2023/10/27 07:49:38;;;;;;;3.13;2.42;;;15.90;71.00;17.60;98962.00;;;;5030101;28;20196;-73
2023/10/27 07:52:06;;;;;;;5.95;2.55;;;15.90;71.00;17.70;98969.00;;;;5026390;28;20221;-73
2023/10/27 07:54:33;;;;;;;4.53;2.67;;;15.80;71.00;17.70;98968.00;;;;5032970;28;20290;-73
2023/10/27 07:57:00;;;;;;;3.80;3.00;;;15.90;71.00;17.70;98966.00;;;;5034550;28;20188;-73
2023/10/27 07:59:29;;;;;;;2.17;1.92;;;15.90;71.10;17.70;98963.00;;;;5035033;28;20200;-73
2023/10/27 08:01:57;;;;;;;2.88;2.35;;;15.90;71.10;17.70;98972.00;;;;5034335;28;20661;-73
2023/10/27 08:04:25;;;;;;;4.38;2.17;;;15.90;71.10;17.70;98976.00;;;;5034625;28;20196;-73
2023/10/27 08:06:52;;;;;;;3.67;2.40;;;16.00;71.10;17.80;98975.00;;;;5034800;28;20200;-73
2023/10/27 08:09:20;;;;;;;2.53;1.95;;;16.00;71.10;17.80;98973.00;;;;5034621;28;20693;-73
2023/10/27 08:11:50;;;;;;;4.53;2.60;;;16.00;71.00;17.80;98973.00;;;;5034491;28;20203;-73
2023/10/27 08:14:17;;;;;;;2.90;1.92;;;16.00;71.00;17.80;98971.00;;;;5034571;28;20579;-73
2023/10/27 08:16:46;;;;;;;2.78;2.38;;;16.00;71.00;17.80;98971.00;;;;5034728;28;20744;-73
2023/10/27 08:19:13;;;;;;;2.78;2.25;;;16.00;71.00;17.80;98972.00;;;;5034171;28;20192;-72
2023/10/27 08:21:40;;;;;;;3.85;2.17;;;16.00;71.00;17.80;98976.00;;;;5034131;28;20753;-73
2023/10/27 08:24:08;;;;;;;2.42;1.80;;;16.00;71.00;17.80;98980.00;;;;5034204;28;20204;-72
2023/10/27 08:26:35;;;;;;;2.55;2.08;;;16.00;71.00;17.90;98981.00;;;;5032967;28;20200;-74
2023/10/27 08:29:02;;;;;;;2.78;1.95;;;16.10;71.10;17.90;98985.00;;;;5033833;28;20232;-72
2023/10/27 08:31:29;;;;;;;3.28;2.60;;;16.10;71.10;17.90;98980.00;;;;5033967;28;20226;-73
2023/10/27 08:33:59;;;;;;;3.45;2.05;;;16.10;71.10;17.90;98980.00;;;;5027260;28;20716;-73
2023/10/27 08:36:27;;;;;;;3.08;2.42;;;16.10;71.10;17.90;98984.00;;;;5034066;28;20204;-72
2023/10/27 08:38:55;;;;;;;2.35;1.73;;;16.20;71.20;17.90;98990.00;;;;5034431;28;20203;-73
2023/10/27 08:41:24;;;;;;;2.35;1.90;;;16.10;71.10;18.00;98988.00;;;;5033882;28;20196;-73
2023/10/27 08:43:52;;;;;;;1.98;1.67;;;16.20;71.20;18.00;98989.00;;;;5034412;28;20195;-73
2023/10/27 08:46:19;;;;;;;2.88;2.00;;;16.20;71.10;18.00;98995.00;;;;5033888;28;20208;-72
2023/10/27 08:48:46;;;;;;;3.95;2.35;;;16.20;71.00;18.00;98993.00;;;;5033390;28;20216;-73
2023/10/27 08:51:16;;;;;;;3.47;2.60;;;16.20;71.00;18.00;98991.00;;;;5033588;28;20199;-73
2023/10/27 08:53:44;;;;;;;2.92;2.55;;;16.20;71.00;18.10;98994.00;;;;5033664;28;20315;-72
2023/10/27 08:56:12;;;;;;;2.38;1.83;;;16.20;70.90;18.10;98989.00;;;;5033549;28;20200;-73
2023/10/27 08:58:40;;;;;;;2.83;2.17;;;16.30;70.90;18.10;98992.00;;;;5033863;28;20204;-73
2023/10/27 09:01:07;;;;;;;5.35;2.40;;;16.30;70.90;18.10;98994.00;;;;5033253;28;20200;-73
2023/10/27 09:03:34;;;;;;;4.38;1.98;;;16.30;70.80;18.10;98990.00;;;;5033243;28;20199;-73
2023/10/27 09:06:01;;;;;;;2.80;2.22;;;16.30;70.80;18.10;98996.00;;;;5032315;28;20933;-73
2023/10/27 09:08:30;;;;;;;2.30;1.80;;;16.30;70.90;18.10;98997.00;;;;5033601;28;20205;-72
2023/10/27 09:10:57;;;;;;;2.65;2.22;;;16.30;70.80;18.10;98995.00;;;;5032739;28;20192;-72
2023/10/27 09:13:25;;;;;;;2.13;1.92;;;16.30;71.50;18.10;98996.00;;;;5032857;28;20230;-73
2023/10/27 09:15:52;;;;;;;2.80;2.33;;;16.30;70.80;18.10;98999.00;;;;5032570;28;20647;-73
2023/10/27 09:18:34;;;;;;;4.95;3.05;;;16.30;70.80;18.00;99000.00;;;;5033401;28;20204;-73
2023/10/27 09:21:01;;;;;;;2.90;2.30;;;16.30;70.80;18.10;99005.00;;;;5033095;28;20657;-73
2023/10/27 09:23:46;;;;;;;3.45;2.38;;;16.30;70.70;18.00;99001.00;;;;5033418;28;20295;-73
2023/10/27 09:26:13;;;;;;;2.97;2.33;;;16.30;71.40;18.10;99010.00;;;;5033273;28;20200;-73
2023/10/27 09:28:40;;;;;;;3.28;2.80;;;16.30;70.60;18.10;99009.00;;;;5032700;28;20655;-73
2023/10/27 09:31:08;;;;;;;4.00;2.53;;;16.30;70.70;18.10;99001.00;;;;5032701;28;20235;-73
2023/10/27 09:33:35;;;;;;;4.63;2.67;;;16.40;70.80;18.20;99007.00;;;;5033118;28;20228;-73
2023/10/27 09:36:02;;;;;;;3.55;2.78;;;16.40;70.80;18.20;99003.00;;;;5032951;28;20227;-73
2023/10/27 09:38:31;;;;;;;2.80;2.50;;;16.40;70.90;18.20;99006.00;;;;5033123;28;20192;-73
2023/10/27 09:41:06;;;;;;;2.92;2.55;;;16.40;71.00;18.10;99014.00;;;;5032905;28;20222;-73
2023/10/27 09:43:41;;;;;;;2.80;2.42;;;16.40;71.00;18.20;99011.00;;;;5032132;28;20196;-73
2023/10/27 09:46:09;;;;;;;3.53;2.78;;;16.40;70.90;18.20;99010.00;;;;5032821;28;20286;-72
2023/10/27 09:48:39;;;;;;;3.83;2.72;;;16.40;70.90;18.20;99011.00;;;;5032783;28;20284;-72
2023/10/27 09:51:16;;;;;;;3.05;2.67;;;16.40;70.90;18.20;99010.00;;;;5032651;28;20204;-72
2023/10/27 09:53:48;;;;;;;2.45;2.03;;;16.50;71.00;18.20;99013.00;;;;5032468;28;20234;-73
2023/10/27 09:56:17;;;;;;;4.05;2.60;;;16.50;71.00;18.30;99014.00;;;;5033171;28;20212;-72
2023/10/27 09:58:45;;;;;;;3.15;2.42;;;16.50;71.00;18.30;99013.00;;;;5032761;28;20211;-73
2023/10/27 10:01:12;;;;;;;3.00;2.42;;;16.50;70.90;18.30;99019.00;;;;5031910;28;20200;-73
2023/10/27 10:03:42;;;;;;;3.20;2.67;;;16.50;70.90;18.20;99009.00;;;;5032645;28;20207;-74
2023/10/27 10:06:12;;;;;;;2.53;2.05;;;16.50;70.80;18.20;99014.00;;;;5032411;28;20238;-74
2023/10/27 10:08:41;;;;;;;2.50;2.13;;;16.50;70.70;18.20;99017.00;;;;5031946;28;20662;-75
2023/10/27 10:11:15;;;;;;;2.35;1.70;;;16.50;70.60;18.10;99022.00;;;;5031725;28;20219;-76
2023/10/27 10:13:42;;;;;;;2.47;1.85;;;16.50;70.50;18.20;99016.00;;;;5032014;28;20227;-75
2023/10/27 10:16:10;;;;;;;3.00;2.30;;;16.50;70.50;18.10;99019.00;;;;5031915;28;20203;-75
2023/10/27 10:19:02;;;;;;;2.65;2.15;;;16.50;70.60;18.00;99017.00;;;;5031958;28;20242;-74
2023/10/27 10:21:35;;;;;;;3.38;2.30;;;16.40;70.70;18.10;99018.00;;;;5013522;28;20204;-74
2023/10/27 10:24:09;;;;;;;2.00;1.80;;;16.40;70.60;18.10;99023.00;;;;5032159;28;20676;-74
2023/10/27 10:27:07;;;;;;;2.63;2.17;;;16.40;70.70;18.00;99019.00;;;;5032524;28;20207;-74
2023/10/27 10:29:34;;;;;;;2.22;1.80;;;16.40;70.80;18.10;99015.00;;;;5031623;28;20270;-74
2023/10/27 10:32:36;;;;;;;1.80;1.65;;;16.40;70.70;18.00;99017.00;;;;5031811;28;20283;-74
2023/10/27 10:35:27;;;;;;;2.97;2.00;;;16.40;70.90;18.10;99014.00;;;;5031481;28;20677;-74
2023/10/27 10:37:55;;;;;;;2.00;1.80;;;16.50;71.10;18.20;99022.00;;;;5031626;28;20197;-73
2023/10/27 10:40:26;;;;;;;2.80;2.13;;;16.40;71.70;18.20;99020.00;;;;5032344;28;20292;-74
2023/10/27 10:43:20;;;;;;;1.88;1.58;;;16.40;71.10;18.10;99021.00;;;;5031168;28;20207;-74
2023/10/27 10:45:51;;;;;;;2.08;1.80;;;16.40;71.20;18.20;99022.00;;;;5012118;28;20566;-74
2023/10/27 10:48:19;;;;;;;3.38;2.53;;;16.50;71.20;18.30;99019.00;;;;5013943;28;20287;-74
2023/10/27 10:50:47;;;;;;;2.60;2.38;;;16.50;71.20;18.30;99022.00;;;;5032623;28;20200;-73
2023/10/27 10:53:16;;;;;;;2.60;2.33;;;16.50;71.20;18.30;99026.00;;;;5031921;28;20331;-73
2023/10/27 10:55:45;;;;;;;2.05;1.85;;;16.50;71.10;18.30;99019.00;;;;5031962;28;20250;-73
2023/10/27 10:58:23;;;;;;;2.80;2.03;;;16.60;71.20;18.20;99016.00;;;;5031086;28;20207;-73